createdAt,value
2022-08-21T00:00:04.318Z,3.87
2022-08-21T00:02:31.328Z,3.50
2022-08-21T00:04:58.259Z,3.90
2022-08-21T00:07:25.528Z,3.60
2022-08-21T00:09:53.338Z,3.80
2022-08-21T00:12:20.502Z,2.90
2022-08-21T00:14:47.600Z,3.37
2022-08-21T00:17:14.404Z,3.70
2022-08-21T00:19:41.617Z,3.87
2022-08-21T00:22:08.612Z,3.70
2022-08-21T00:24:35.541Z,4.13
2022-08-21T00:27:02.331Z,4.03
2022-08-21T00:29:29.051Z,4.23
2022-08-21T00:31:55.802Z,4.00
2022-08-21T00:34:22.704Z,3.10
2022-08-21T00:36:49.461Z,3.80
2022-08-21T00:39:16.179Z,4.07
2022-08-21T00:41:43.520Z,3.13
2022-08-21T00:44:13.325Z,2.60
2022-08-21T00:46:41.678Z,3.53
2022-08-21T00:49:10.795Z,3.47
2022-08-21T00:51:51.811Z,3.07
2022-08-21T00:54:21.403Z,4.00
2022-08-21T00:56:52.304Z,3.77
2022-08-21T00:59:20.713Z,3.77
2022-08-21T01:01:48.510Z,3.90
2022-08-21T01:04:17.292Z,4.27
2022-08-21T01:06:44.747Z,2.50
2022-08-21T01:09:12.736Z,3.23
2022-08-21T01:11:39.893Z,3.43
2022-08-21T01:14:06.616Z,3.90
2022-08-21T01:16:34.485Z,3.80
2022-08-21T01:19:01.207Z,3.47
2022-08-21T01:21:29.359Z,3.63
2022-08-21T01:23:57.559Z,3.90
2022-08-21T01:26:33.711Z,3.97
2022-08-21T01:29:17.711Z,3.27
2022-08-21T01:31:44.988Z,4.03
2022-08-21T01:34:12.650Z,4.17
2022-08-21T01:36:39.531Z,4.63
2022-08-21T01:39:07.029Z,4.10
2022-08-21T01:41:33.944Z,4.53
2022-08-21T01:44:00.753Z,4.70
2022-08-21T01:46:27.736Z,4.43
2022-08-21T01:48:54.515Z,4.07
2022-08-21T01:51:21.284Z,4.67
2022-08-21T01:53:48.124Z,4.50
2022-08-21T01:56:16.638Z,4.83
2022-08-21T01:58:46.005Z,4.80
2022-08-21T02:01:13.116Z,4.73
2022-08-21T02:03:40.264Z,5.37
2022-08-21T02:06:08.156Z,5.50
2022-08-21T02:08:35.452Z,4.80
2022-08-21T02:11:02.284Z,4.80
2022-08-21T02:13:29.066Z,4.77
2022-08-21T02:15:55.845Z,5.20
2022-08-21T02:18:22.698Z,5.80
2022-08-21T02:20:53.646Z,6.20
2022-08-21T02:23:27.424Z,6.40
2022-08-21T02:26:07.668Z,5.50
2022-08-21T02:28:35.485Z,4.80
2022-08-21T02:31:02.896Z,5.33
2022-08-21T02:33:30.119Z,5.87
2022-08-21T02:35:57.865Z,6.07
2022-08-21T02:38:27.933Z,4.60
2022-08-21T02:40:55.807Z,5.47
2022-08-21T02:43:25.111Z,6.40
2022-08-21T02:45:52.504Z,5.97
2022-08-21T02:48:22.804Z,6.10
2022-08-21T02:50:53.914Z,5.70
2022-08-21T02:53:20.827Z,5.53
2022-08-21T02:55:50.286Z,6.60
2022-08-21T02:58:19.942Z,5.80
2022-08-21T03:00:46.920Z,6.07
2022-08-21T03:03:15.454Z,5.40
2022-08-21T03:05:43.780Z,4.87
2022-08-21T03:08:13.340Z,6.23
2022-08-21T03:10:43.630Z,6.97
2022-08-21T03:13:11.398Z,6.23
2022-08-21T03:15:38.684Z,6.07
2022-08-21T03:18:06.504Z,6.10
2022-08-21T03:20:33.811Z,6.67
2022-08-21T03:23:01.549Z,6.10
2022-08-21T03:25:39.732Z,6.97
2022-08-21T03:28:12.839Z,6.77
2022-08-21T03:30:41.934Z,7.27
2022-08-21T03:33:08.915Z,6.93
2022-08-21T03:35:39.188Z,6.53
2022-08-21T03:38:05.939Z,7.30
2022-08-21T03:40:32.883Z,6.90
2022-08-21T03:42:59.920Z,7.13
2022-08-21T03:45:27.079Z,6.13
2022-08-21T03:47:53.939Z,7.27
2022-08-21T03:50:23.512Z,6.93
2022-08-21T03:52:50.625Z,6.20
2022-08-21T03:55:18.015Z,7.50
2022-08-21T03:57:45.183Z,6.53
2022-08-21T04:00:14.381Z,6.57
2022-08-21T04:02:42.034Z,7.00
2022-08-21T04:05:08.990Z,7.10
2022-08-21T04:07:36.444Z,7.17
2022-08-21T04:10:05.062Z,7.00
2022-08-21T04:12:32.399Z,7.03
2022-08-21T04:14:59.461Z,7.40
2022-08-21T04:17:26.286Z,7.50
2022-08-21T04:19:53.961Z,7.67
2022-08-21T04:22:21.940Z,7.60
2022-08-21T04:24:48.790Z,8.80
2022-08-21T04:27:15.693Z,8.40
2022-08-21T04:29:42.795Z,8.57
2022-08-21T04:32:09.525Z,7.17
2022-08-21T04:34:36.334Z,7.57
2022-08-21T04:37:04.315Z,8.00
2022-08-21T04:39:31.203Z,8.17
2022-08-21T04:41:57.902Z,8.27
2022-08-21T04:44:24.743Z,8.07
2022-08-21T04:46:51.443Z,8.27
2022-08-21T04:49:18.386Z,8.17
2022-08-21T04:51:45.434Z,8.00
2022-08-21T04:54:17.446Z,7.87
2022-08-21T04:56:50.771Z,8.43
2022-08-21T04:59:22.143Z,8.07
2022-08-21T05:01:49.331Z,7.83
2022-08-21T05:04:20.608Z,8.50
2022-08-21T05:06:49.782Z,8.07
2022-08-21T05:09:18.609Z,8.17
2022-08-21T05:11:46.093Z,8.00
2022-08-21T05:14:13.845Z,8.20
2022-08-21T05:16:41.606Z,8.43
2022-08-21T05:19:09.331Z,7.60
2022-08-21T05:21:38.708Z,8.20
2022-08-21T05:24:06.022Z,8.10
2022-08-21T05:26:32.906Z,8.23
2022-08-21T05:28:59.954Z,7.83
2022-08-21T05:31:27.040Z,8.00
2022-08-21T05:33:54.139Z,7.97
2022-08-21T05:36:23.447Z,7.83
2022-08-21T05:38:50.718Z,7.37
2022-08-21T05:41:17.945Z,7.50
2022-08-21T05:43:44.701Z,7.10
2022-08-21T05:46:11.544Z,7.03
2022-08-21T05:48:38.538Z,6.90
2022-08-21T05:51:14.109Z,6.17
2022-08-21T05:53:45.899Z,6.80
2022-08-21T05:56:13.536Z,6.40
2022-08-21T05:58:40.538Z,6.50
2022-08-21T06:01:09.500Z,6.40
2022-08-21T06:03:38.680Z,6.97
2022-08-21T06:06:05.744Z,6.50
2022-08-21T06:08:32.743Z,6.47
2022-08-21T06:11:01.080Z,6.23
2022-08-21T06:13:28.386Z,6.20
2022-08-21T06:16:08.214Z,6.00
2022-08-21T06:18:36.593Z,6.43
2022-08-21T06:21:04.063Z,6.47
2022-08-21T06:23:31.759Z,6.07
2022-08-21T06:26:00.866Z,6.07
2022-08-21T06:28:27.704Z,5.97
2022-08-21T06:30:54.919Z,5.70
2022-08-21T06:33:21.882Z,6.70
2022-08-21T06:35:49.428Z,6.20
2022-08-21T06:38:16.533Z,5.70
2022-08-21T06:40:46.926Z,5.33
2022-08-21T06:43:16.423Z,6.13
2022-08-21T06:45:44.283Z,5.83
2022-08-21T06:48:14.528Z,5.13
2022-08-21T06:50:43.977Z,5.73
2022-08-21T06:53:13.843Z,5.77
2022-08-21T06:55:41.173Z,5.37
2022-08-21T06:58:08.607Z,5.70
2022-08-21T07:00:41.951Z,4.90
2022-08-21T07:03:08.854Z,5.80
2022-08-21T07:05:35.693Z,6.03
2022-08-21T07:08:02.673Z,5.10
2022-08-21T07:10:29.698Z,6.00
2022-08-21T07:13:01.168Z,5.70
2022-08-21T07:15:31.159Z,5.57
2022-08-21T07:17:59.457Z,4.97
2022-08-21T07:20:27.919Z,5.43
2022-08-21T07:22:55.505Z,4.77
2022-08-21T07:25:22.637Z,5.30
2022-08-21T07:27:49.387Z,4.60
2022-08-21T07:30:16.298Z,4.70
2022-08-21T07:32:43.038Z,3.97
2022-08-21T07:35:09.759Z,3.73
2022-08-21T07:37:36.637Z,3.93
2022-08-21T07:40:04.433Z,4.23
2022-08-21T07:42:31.209Z,3.60
2022-08-21T07:44:58.002Z,3.60
2022-08-21T07:47:29.395Z,3.50
2022-08-21T07:50:12.277Z,3.30
2022-08-21T07:52:40.321Z,3.53
2022-08-21T07:55:08.830Z,3.47
2022-08-21T07:57:38.204Z,3.00
2022-08-21T08:00:08.021Z,2.87
2022-08-21T08:02:35.081Z,2.93
2022-08-21T08:05:07.168Z,3.70
2022-08-21T08:07:34.272Z,2.70
2022-08-21T08:10:01.799Z,2.47
2022-08-21T08:12:30.449Z,2.97
2022-08-21T08:15:01.752Z,3.13
2022-08-21T08:17:29.438Z,2.63
2022-08-21T08:19:56.456Z,3.03
2022-08-21T08:22:26.930Z,2.50
2022-08-21T08:24:54.559Z,3.00
2022-08-21T08:27:21.632Z,3.20
2022-08-21T08:29:48.797Z,2.90
2022-08-21T08:32:16.010Z,2.50
2022-08-21T08:34:42.907Z,2.90
2022-08-21T08:37:11.190Z,2.83
2022-08-21T08:39:39.144Z,2.00
2022-08-21T08:42:32.903Z,2.60
2022-08-21T08:45:20.219Z,2.37
2022-08-21T08:47:58.816Z,1.93
2022-08-21T08:50:37.864Z,2.60
2022-08-21T08:53:16.743Z,2.73
2022-08-21T08:55:45.634Z,2.70
2022-08-21T08:58:25.903Z,2.40
2022-08-21T09:00:54.934Z,2.55
2022-08-21T09:03:23.912Z,2.72
2022-08-21T09:06:11.926Z,2.28
2022-08-21T09:08:50.960Z,2.25
2022-08-21T09:11:38.139Z,2.22
2022-08-21T09:14:31.898Z,2.55
2022-08-21T09:17:07.893Z,2.05
2022-08-21T09:20:04.095Z,2.60
2022-08-21T09:23:09.156Z,2.47
2022-08-21T09:25:46.782Z,2.50
2022-08-21T09:28:16.772Z,2.38
2022-08-21T09:30:43.544Z,2.95
2022-08-21T09:33:13.602Z,2.00
2022-08-21T09:35:53.639Z,2.10
2022-08-21T09:38:29.113Z,2.40
2022-08-21T09:41:05.826Z,2.42
2022-08-21T09:43:33.254Z,1.45
2022-08-21T09:46:25.492Z,1.65
2022-08-21T09:48:55.464Z,2.28
2022-08-21T09:51:29.064Z,2.60
2022-08-21T09:54:06.281Z,1.85
2022-08-21T09:57:05.653Z,2.20
2022-08-21T09:59:37.150Z,1.80
2022-08-21T10:02:37.104Z,1.67
2022-08-21T10:05:26.634Z,2.20
2022-08-21T10:07:53.959Z,2.15
2022-08-21T10:10:24.559Z,2.42
2022-08-21T10:13:11.577Z,1.67
2022-08-21T10:15:41.170Z,1.85
2022-08-21T10:18:30.707Z,2.28
2022-08-21T10:21:26.766Z,1.75
2022-08-21T10:24:02.310Z,1.95
2022-08-21T10:26:47.662Z,2.08
2022-08-21T10:29:22.381Z,1.70
2022-08-21T10:31:52.138Z,1.45
2022-08-21T10:34:38.011Z,1.17
2022-08-21T10:37:10.798Z,1.15
2022-08-21T10:40:15.244Z,1.38
2022-08-21T10:43:04.691Z,1.20
2022-08-21T10:45:50.248Z,1.10
2022-08-21T10:48:37.571Z,1.30
2022-08-21T10:51:18.112Z,1.30
2022-08-21T10:54:02.380Z,1.00
2022-08-21T10:56:36.841Z,1.15
2022-08-21T10:59:44.401Z,1.30
2022-08-21T11:02:48.443Z,1.20
2022-08-21T11:05:21.706Z,1.48
2022-08-21T11:07:57.313Z,1.50
2022-08-21T11:10:36.954Z,1.35
2022-08-21T11:13:34.181Z,1.13
2022-08-21T11:16:32.013Z,1.23
2022-08-21T11:19:22.970Z,1.23
2022-08-21T11:22:17.246Z,1.27
2022-08-21T11:24:48.318Z,1.20
2022-08-21T11:27:37.454Z,1.33
2022-08-21T11:30:05.121Z,1.45
2022-08-21T11:32:56.727Z,1.05
2022-08-21T11:35:44.647Z,1.20
2022-08-21T11:38:11.398Z,1.67
2022-08-21T11:41:15.514Z,1.35
2022-08-21T11:43:54.735Z,1.17
2022-08-21T11:46:50.690Z,1.40
2022-08-21T11:49:18.147Z,1.30
2022-08-21T11:52:11.554Z,1.20
2022-08-21T11:55:07.701Z,1.20
2022-08-21T11:57:43.477Z,1.48
2022-08-21T12:00:26.331Z,1.25
2022-08-21T12:03:06.930Z,1.42
2022-08-21T12:05:39.430Z,1.17
2022-08-21T12:08:27.179Z,1.10
2022-08-21T12:11:24.847Z,1.42
2022-08-21T12:13:57.864Z,1.40
2022-08-21T12:16:42.671Z,1.23
2022-08-21T12:19:15.225Z,0.98
2022-08-21T12:22:02.079Z,1.00
2022-08-21T12:24:29.001Z,1.20
2022-08-21T12:27:16.026Z,1.33
2022-08-21T12:29:51.245Z,1.73
2022-08-21T12:32:18.050Z,1.27
2022-08-21T12:34:56.252Z,1.23
2022-08-21T12:37:30.960Z,1.00
2022-08-21T12:40:01.739Z,0.98
2022-08-21T12:42:52.927Z,1.30
2022-08-21T12:45:34.654Z,1.17
2022-08-21T12:48:41.242Z,0.82
2022-08-21T12:51:15.519Z,1.20
2022-08-21T12:53:52.248Z,1.10
2022-08-21T12:56:21.756Z,1.33
2022-08-21T12:58:51.652Z,1.80
2022-08-21T13:01:52.654Z,1.55
2022-08-21T13:04:38.190Z,1.17
2022-08-21T13:07:13.283Z,1.38
2022-08-21T13:09:54.473Z,0.88
2022-08-21T13:12:23.770Z,1.27
2022-08-21T13:14:58.271Z,1.23
2022-08-21T13:17:27.273Z,1.15
2022-08-21T13:19:59.286Z,1.20
2022-08-21T13:22:33.698Z,1.08
2022-08-21T13:25:02.401Z,1.20
2022-08-21T13:27:35.956Z,1.40
2022-08-21T13:30:10.788Z,0.95
2022-08-21T13:32:45.023Z,1.15
2022-08-21T13:35:26.571Z,1.40
2022-08-21T13:37:55.704Z,1.15
2022-08-21T13:40:29.700Z,1.05
2022-08-21T13:42:58.232Z,1.02
2022-08-21T13:45:33.293Z,1.10
2022-08-21T13:48:06.703Z,1.25
2022-08-21T13:50:43.642Z,1.15
2022-08-21T13:53:30.686Z,1.08
2022-08-21T13:56:01.073Z,1.38
2022-08-21T13:58:44.440Z,0.82
2022-08-21T14:01:34.858Z,1.33
2022-08-21T14:04:13.176Z,1.35
2022-08-21T14:06:40.238Z,1.60
2022-08-21T14:09:14.257Z,1.42
2022-08-21T14:11:42.324Z,1.30
2022-08-21T14:14:28.364Z,1.45
2022-08-21T14:16:58.916Z,1.25
2022-08-21T14:19:28.911Z,1.70
2022-08-21T14:21:55.767Z,1.20
2022-08-21T14:24:29.573Z,1.25
2022-08-21T14:26:59.351Z,1.20
2022-08-21T14:29:33.058Z,1.30
2022-08-21T14:32:32.891Z,1.30
2022-08-21T14:34:59.815Z,1.20
2022-08-21T14:37:26.718Z,1.55
2022-08-21T14:39:53.615Z,1.42
2022-08-21T14:42:20.748Z,1.80
2022-08-21T14:44:48.128Z,1.27
2022-08-21T14:47:14.928Z,1.27
2022-08-21T14:49:41.599Z,1.58
2022-08-21T14:52:08.539Z,1.48
2022-08-21T14:54:35.413Z,1.45
2022-08-21T14:57:07.288Z,1.52
2022-08-21T14:59:35.404Z,1.30
2022-08-21T15:02:05.387Z,1.30
2022-08-21T15:04:33.048Z,1.50
2022-08-21T15:06:59.960Z,1.23
2022-08-21T15:09:29.734Z,1.60
2022-08-21T15:11:58.414Z,1.45
2022-08-21T15:14:30.727Z,1.20
2022-08-21T15:16:58.099Z,1.45
2022-08-21T15:19:25.498Z,1.45
2022-08-21T15:21:52.543Z,1.60
2022-08-21T15:24:19.375Z,1.23
2022-08-21T15:26:46.570Z,1.45
2022-08-21T15:29:13.402Z,1.30
2022-08-21T15:31:58.675Z,1.17
2022-08-21T15:34:30.716Z,1.50
2022-08-21T15:36:58.732Z,1.27
2022-08-21T15:39:31.145Z,1.13
2022-08-21T15:41:58.485Z,1.38
2022-08-21T15:44:28.253Z,1.25
2022-08-21T15:46:56.557Z,1.30
2022-08-21T15:49:24.210Z,1.35
2022-08-21T15:51:51.046Z,2.38
2022-08-21T15:54:18.209Z,2.20
2022-08-21T15:56:49.720Z,2.50
2022-08-21T15:59:22.946Z,1.50
2022-08-21T16:01:53.520Z,1.52
2022-08-21T16:04:27.377Z,1.52
2022-08-21T16:06:59.976Z,1.83
2022-08-21T16:09:32.107Z,1.67
2022-08-21T16:12:01.546Z,1.63
2022-08-21T16:14:30.542Z,1.90
2022-08-21T16:16:57.479Z,1.83
2022-08-21T16:19:24.319Z,2.03
2022-08-21T16:21:51.074Z,1.80
2022-08-21T16:24:17.935Z,1.98
2022-08-21T16:26:44.780Z,2.47
2022-08-21T16:29:12.037Z,2.90
2022-08-21T16:31:39.075Z,2.50
2022-08-21T16:34:05.837Z,1.88
2022-08-21T16:36:32.673Z,1.50
2022-08-21T16:39:03.358Z,1.60
2022-08-21T16:41:33.743Z,2.15
2022-08-21T16:44:01.645Z,1.88
2022-08-21T16:46:32.804Z,1.90
2022-08-21T16:48:59.599Z,1.83
2022-08-21T16:51:26.382Z,1.60
2022-08-21T16:53:53.494Z,1.67
2022-08-21T16:56:20.455Z,1.50
2022-08-21T16:58:49.759Z,1.80
2022-08-21T17:01:22.744Z,1.75
2022-08-21T17:03:51.318Z,1.88
2022-08-21T17:06:19.822Z,1.80
2022-08-21T17:08:47.370Z,1.70
2022-08-21T17:11:36.491Z,2.00
2022-08-21T17:14:18.215Z,1.45
2022-08-21T17:16:47.157Z,1.75
2022-08-21T17:19:14.394Z,1.35
2022-08-21T17:21:41.351Z,1.75
2022-08-21T17:24:10.687Z,2.00
2022-08-21T17:26:37.740Z,1.90
2022-08-21T17:29:09.848Z,1.48
2022-08-21T17:31:38.931Z,1.70
2022-08-21T17:34:06.682Z,1.87
2022-08-21T17:36:33.623Z,1.60
2022-08-21T17:39:00.606Z,1.70
2022-08-21T17:41:27.727Z,1.40
2022-08-21T17:43:55.631Z,1.57
2022-08-21T17:46:24.755Z,2.10
2022-08-21T17:48:51.860Z,1.50
2022-08-21T17:51:19.544Z,1.67
2022-08-21T17:53:46.794Z,1.30
2022-08-21T17:56:19.938Z,2.00
2022-08-21T17:58:50.608Z,1.30
2022-08-21T18:01:19.408Z,1.30
2022-08-21T18:03:49.659Z,1.20
2022-08-21T18:06:17.892Z,1.50
2022-08-21T18:08:45.836Z,1.73
2022-08-21T18:11:23.110Z,1.77
2022-08-21T18:13:53.448Z,1.53
2022-08-21T18:16:21.251Z,2.07
2022-08-21T18:18:49.371Z,3.60
2022-08-21T18:21:16.372Z,1.67
2022-08-21T18:23:44.946Z,1.70
2022-08-21T18:26:16.210Z,1.43
2022-08-21T18:28:44.334Z,1.70
2022-08-21T18:31:12.862Z,1.70
2022-08-21T18:33:57.021Z,1.73
2022-08-21T18:36:26.720Z,1.80
2022-08-21T18:38:53.905Z,1.27
2022-08-21T18:41:20.878Z,1.60
2022-08-21T18:43:48.037Z,1.33
2022-08-21T18:46:15.096Z,1.23
2022-08-21T18:48:43.863Z,1.50
2022-08-21T18:51:12.333Z,1.10
2022-08-21T18:53:39.511Z,1.40
2022-08-21T18:56:07.097Z,1.40
2022-08-21T18:58:44.232Z,1.30
2022-08-21T19:01:11.669Z,1.20
2022-08-21T19:03:39.384Z,1.20
2022-08-21T19:06:06.376Z,1.70
2022-08-21T19:08:38.516Z,1.83
2022-08-21T19:11:06.551Z,1.70
2022-08-21T19:13:34.999Z,1.77
2022-08-21T19:16:05.370Z,1.20
2022-08-21T19:18:40.674Z,1.03
2022-08-21T19:21:08.250Z,1.60
2022-08-21T19:23:35.593Z,1.20
2022-08-21T19:26:05.988Z,1.27
2022-08-21T19:28:40.510Z,1.20
2022-08-21T19:31:16.259Z,1.20
2022-08-21T19:33:47.563Z,1.20
2022-08-21T19:36:18.311Z,1.00
2022-08-21T19:38:45.984Z,1.20
2022-08-21T19:41:15.527Z,1.23
2022-08-21T19:43:47.362Z,1.03
2022-08-21T19:46:20.475Z,1.90
2022-08-21T19:48:47.298Z,1.10
2022-08-21T19:51:15.470Z,1.70
2022-08-21T19:53:42.271Z,1.13
2022-08-21T19:56:14.615Z,1.20
2022-08-21T19:58:44.311Z,1.20
2022-08-21T20:04:00.406Z,1.40
2022-08-21T20:06:27.463Z,1.53
2022-08-21T20:08:55.324Z,1.30
2022-08-21T20:11:31.878Z,1.60
2022-08-21T20:14:00.756Z,1.57
2022-08-21T20:16:29.075Z,1.57
2022-08-21T20:18:56.488Z,1.33
2022-08-21T20:21:23.273Z,1.47
2022-08-21T20:27:02.579Z,1.70
2022-08-21T20:29:38.972Z,1.67
2022-08-21T20:32:11.968Z,1.47
2022-08-21T20:34:40.109Z,1.30
2022-08-21T20:37:06.848Z,1.47
2022-08-21T20:39:36.648Z,1.53
2022-08-21T20:42:06.878Z,1.97
2022-08-21T20:44:35.801Z,1.10
2022-08-21T20:47:04.786Z,1.50
2022-08-21T20:49:43.221Z,1.37
2022-08-21T20:52:10.879Z,1.77
2022-08-21T20:54:57.882Z,1.20
2022-08-21T20:57:31.760Z,1.50
2022-08-21T21:03:07.765Z,1.90
2022-08-21T21:05:50.165Z,1.50
2022-08-21T21:08:29.346Z,2.13
2022-08-21T21:11:23.903Z,2.47
2022-08-21T21:14:00.175Z,2.00
2022-08-21T21:16:40.454Z,2.70
2022-08-21T21:19:23.577Z,1.93
2022-08-21T21:21:58.591Z,2.07
2022-08-21T21:24:36.741Z,2.17
2022-08-21T21:30:24.399Z,2.60
2022-08-21T21:32:52.957Z,2.07
2022-08-21T21:35:32.799Z,2.53
2022-08-21T21:38:16.754Z,2.73
2022-08-21T21:41:11.041Z,3.50
2022-08-21T21:43:53.433Z,3.03
2022-08-21T21:46:27.221Z,3.10
2022-08-21T21:49:11.706Z,2.13
2022-08-21T21:52:17.506Z,2.17
2022-08-21T21:54:54.303Z,1.77
2022-08-21T21:57:40.271Z,2.20
2022-08-21T22:00:18.824Z,2.23
2022-08-21T22:02:58.844Z,2.00
2022-08-21T22:05:57.807Z,2.13
2022-08-21T22:08:52.343Z,2.33
2022-08-21T22:11:58.224Z,2.13
2022-08-21T22:14:34.441Z,3.50
2022-08-21T22:17:25.186Z,5.07
2022-08-21T22:19:54.632Z,2.60
2022-08-21T22:22:24.806Z,3.07
2022-08-21T22:24:58.922Z,2.57
2022-08-21T22:27:34.241Z,3.20
2022-08-21T22:30:06.454Z,4.40
2022-08-21T22:32:42.782Z,3.17
2022-08-21T22:35:25.985Z,3.47
2022-08-21T22:37:58.223Z,1.90
2022-08-21T22:40:35.261Z,3.70
2022-08-21T22:43:09.401Z,3.13
2022-08-21T22:46:06.555Z,6.33
2022-08-21T22:48:38.602Z,5.77
2022-08-21T22:51:13.801Z,3.67
2022-08-21T22:53:43.235Z,3.67
2022-08-21T22:56:25.786Z,2.67
2022-08-21T22:58:56.321Z,4.80
2022-08-21T23:01:23.702Z,3.90
2022-08-21T23:03:54.587Z,3.57
2022-08-21T23:06:24.543Z,3.57
2022-08-21T23:08:53.578Z,4.20
2022-08-21T23:11:24.907Z,4.00
2022-08-21T23:13:55.353Z,4.07
2022-08-21T23:16:33.858Z,4.00
2022-08-21T23:19:03.768Z,4.23
2022-08-21T23:21:41.315Z,4.40
2022-08-21T23:24:46.745Z,4.27
2022-08-21T23:27:48.076Z,5.37
2022-08-21T23:30:30.975Z,4.60
2022-08-21T23:33:18.921Z,5.57
2022-08-21T23:36:18.579Z,5.80
2022-08-21T23:39:20.438Z,3.77
2022-08-21T23:42:08.318Z,3.27
2022-08-21T23:44:43.202Z,5.40
2022-08-21T23:47:37.254Z,4.70
2022-08-21T23:50:14.669Z,4.33
2022-08-21T23:52:58.205Z,4.47
2022-08-21T23:55:44.532Z,5.27
2022-08-21T23:58:26.929Z,6.77
